Time;durP1;ratioP1;P1;durP2;ratioP2;P2;SDS_P1;SDS_P2;PMS_P1;PMS_P2;Temp;Humidity;BMP_temperature;BMP_pressure;BME280_temperature;BME280_humidity;BME280_pressure;Samples;Min_cycle;Max_cycle;Signal;HPM_P1;HPM_P2
2021/10/10 00:01:16;;;;;;;27.87;17.70;;;10.40;89.70;;;;;;5074960;28;20032;-79
2021/10/10 00:03:41;;;;;;;26.03;16.80;;;10.20;89.60;;;;;;5056633;28;20031;-79
2021/10/10 00:06:07;;;;;;;26.30;15.77;;;10.20;89.70;;;;;;5073330;28;20029;-79
2021/10/10 00:08:32;;;;;;;26.83;17.27;;;10.10;89.80;;;;;;5056538;28;20021;-79
2021/10/10 00:10:58;;;;;;;27.77;17.73;;;10.10;90.00;;;;;;5072973;28;20166;-79
2021/10/10 00:13:24;;;;;;;28.20;17.80;;;10.10;90.00;;;;;;5073453;28;20050;-79
2021/10/10 00:15:49;;;;;;;27.07;16.13;;;10.00;90.10;;;;;;5073506;28;20362;-80
2021/10/10 00:18:15;;;;;;;25.60;16.60;;;10.00;90.20;;;;;;5056445;28;20396;-80
2021/10/10 00:20:41;;;;;;;26.87;16.93;;;10.00;90.20;;;;;;5073036;28;20016;-80
2021/10/10 00:23:06;;;;;;;30.87;17.40;;;10.00;90.30;;;;;;5072953;28;20028;-80
2021/10/10 00:25:32;;;;;;;29.17;16.80;;;10.00;90.40;;;;;;5072323;28;20534;-79
2021/10/10 00:27:58;;;;;;;27.40;17.90;;;10.00;90.50;;;;;;5073994;28;20195;-79
2021/10/10 00:30:25;;;;;;;26.93;17.63;;;10.00;90.60;;;;;;5072767;28;20523;-79
2021/10/10 00:32:51;;;;;;;26.77;17.10;;;9.90;90.60;;;;;;5056456;28;20021;-79
2021/10/10 00:35:17;;;;;;;27.83;18.03;;;9.90;90.80;;;;;;5072715;28;20024;-79
2021/10/10 00:37:44;;;;;;;27.73;17.70;;;9.90;90.90;;;;;;5072970;28;20024;-79
2021/10/10 00:40:11;;;;;;;29.73;18.53;;;9.90;91.00;;;;;;5056166;28;20028;-79
2021/10/10 00:42:36;;;;;;;28.83;18.20;;;9.90;91.10;;;;;;5072624;28;20056;-79
2021/10/10 00:45:02;;;;;;;28.60;17.70;;;10.00;91.10;;;;;;5055844;28;20029;-78
2021/10/10 00:47:28;;;;;;;28.63;18.27;;;9.90;91.00;;;;;;5072788;28;20496;-79
2021/10/10 00:49:53;;;;;;;29.03;18.17;;;9.90;91.10;;;;;;5072532;28;20033;-78
2021/10/10 00:52:20;;;;;;;28.00;18.67;;;9.90;91.10;;;;;;5055781;28;20392;-78
2021/10/10 00:54:47;;;;;;;31.17;19.10;;;9.90;91.20;;;;;;5072346;28;20028;-78
2021/10/10 00:57:13;;;;;;;31.53;20.33;;;9.90;91.20;;;;;;5073521;28;20016;-78
2021/10/10 00:59:43;;;;;;;29.60;18.20;;;9.90;91.30;;;;;;5072376;28;20079;-78
2021/10/10 01:02:08;;;;;;;28.40;17.60;;;9.90;91.30;;;;;;5072272;28;20052;-78
2021/10/10 01:04:34;;;;;;;31.23;19.67;;;9.90;91.40;;;;;;5055478;28;20913;-78
2021/10/10 01:07:00;;;;;;;28.70;20.00;;;9.80;91.40;;;;;;5072301;28;20443;-78
2021/10/10 01:09:27;;;;;;;30.60;19.37;;;9.80;91.40;;;;;;5055473;28;20396;-78
2021/10/10 01:11:53;;;;;;;28.20;18.37;;;9.80;91.50;;;;;;5072029;28;20370;-79
2021/10/10 01:14:19;;;;;;;29.43;18.13;;;9.80;91.50;;;;;;5072172;28;20107;-78
2021/10/10 01:16:44;;;;;;;29.97;18.13;;;9.70;91.30;;;;;;5071924;28;20059;-78
2021/10/10 01:19:10;;;;;;;29.00;19.03;;;9.80;91.60;;;;;;5072077;28;20024;-78
2021/10/10 01:21:36;;;;;;;28.03;18.43;;;9.70;91.30;;;;;;5073218;28;20548;-78
2021/10/10 01:24:03;;;;;;;28.43;17.60;;;9.70;91.30;;;;;;5072116;28;20028;-79
2021/10/10 01:26:30;;;;;;;25.70;17.80;;;9.60;91.30;;;;;;5071929;28;20033;-77
2021/10/10 01:28:56;;;;;;;28.33;18.43;;;9.60;91.30;;;;;;5073080;28;20485;-78
2021/10/10 01:31:22;;;;;;;27.40;17.63;;;9.60;91.30;;;;;;5071764;28;20064;-78
2021/10/10 01:33:47;;;;;;;28.87;17.70;;;9.50;91.30;;;;;;5071921;28;20033;-78
2021/10/10 01:36:14;;;;;;;28.77;17.73;;;9.50;91.40;;;;;;5072165;28;20029;-77
2021/10/10 01:38:41;;;;;;;25.80;17.00;;;9.50;91.40;;;;;;5074839;28;20455;-78
2021/10/10 01:41:10;;;;;;;28.37;17.17;;;9.50;91.50;;;;;;5059464;28;20029;-78
2021/10/10 01:43:40;;;;;;;26.40;17.77;;;9.50;91.40;;;;;;5059194;28;20033;-78
2021/10/10 01:46:06;;;;;;;29.60;18.43;;;9.40;91.40;;;;;;5075996;28;20350;-78
2021/10/10 01:48:34;;;;;;;28.50;18.50;;;9.40;91.40;;;;;;5059192;28;20058;-78
2021/10/10 01:51:00;;;;;;;26.83;17.63;;;9.30;91.40;;;;;;5076999;28;20059;-78
2021/10/10 01:53:26;;;;;;;27.20;17.10;;;9.30;91.50;;;;;;5077044;28;20028;-78
2021/10/10 01:55:51;;;;;;;26.77;17.30;;;9.30;91.60;;;;;;5075748;28;20024;-79
2021/10/10 01:58:17;;;;;;;27.53;18.13;;;9.30;91.60;;;;;;5075612;28;20036;-79
2021/10/10 02:00:43;;;;;;;28.17;17.43;;;9.20;91.70;;;;;;5059219;28;20039;-79
2021/10/10 02:03:08;;;;;;;27.40;18.40;;;9.20;91.70;;;;;;5075983;28;20029;-79
2021/10/10 02:05:34;;;;;;;26.90;17.33;;;9.20;91.80;;;;;;5077286;28;20439;-79
2021/10/10 02:08:00;;;;;;;27.70;17.13;;;9.20;91.90;;;;;;5075638;28;20435;-79
2021/10/10 02:10:25;;;;;;;27.73;17.87;;;9.20;91.90;;;;;;5058770;28;20063;-79
2021/10/10 02:12:51;;;;;;;28.63;17.83;;;9.30;92.00;;;;;;5059032;28;20124;-79
2021/10/10 02:15:17;;;;;;;31.63;18.10;;;9.10;92.00;;;;;;5075266;28;20119;-79
2021/10/10 02:17:43;;;;;;;27.37;17.47;;;9.10;92.00;;;;;;5076558;28;20028;-79
2021/10/10 02:20:09;;;;;;;24.83;16.13;;;9.20;92.10;;;;;;5075291;28;20035;-79
2021/10/10 02:22:36;;;;;;;25.33;16.30;;;9.10;92.00;;;;;;5075353;28;20040;-78
2021/10/10 02:25:03;;;;;;;26.20;15.83;;;9.10;92.00;;;;;;5075233;28;20052;-78
2021/10/10 02:27:28;;;;;;;22.00;15.33;;;9.10;92.00;;;;;;5074736;28;20072;-78
2021/10/10 02:29:54;;;;;;;22.77;15.07;;;9.10;92.00;;;;;;5075081;28;20075;-78
2021/10/10 02:32:20;;;;;;;24.83;15.93;;;9.00;91.90;;;;;;5058493;28;20078;-78
2021/10/10 02:34:45;;;;;;;27.30;15.67;;;9.00;92.00;;;;;;5075243;28;20028;-78
2021/10/10 02:37:11;;;;;;;24.20;15.80;;;9.00;92.00;;;;;;5075015;28;20078;-78
2021/10/10 02:39:37;;;;;;;24.33;14.90;;;9.00;92.00;;;;;;5075156;28;20384;-78
2021/10/10 02:42:04;;;;;;;23.20;15.70;;;9.00;92.10;;;;;;5074837;28;20361;-78
2021/10/10 02:44:30;;;;;;;23.83;15.50;;;8.90;92.10;;;;;;5076112;28;20039;-78
2021/10/10 02:46:56;;;;;;;26.73;16.73;;;8.90;92.10;;;;;;5076377;28;20024;-79
2021/10/10 02:49:21;;;;;;;25.60;16.70;;;8.80;92.20;;;;;;5074410;28;20431;-78
2021/10/10 02:51:47;;;;;;;27.20;16.93;;;9.00;92.30;;;;;;5074623;28;20047;-80
2021/10/10 02:54:13;;;;;;;31.00;19.70;;;8.90;92.40;;;;;;5075262;28;20466;-79
2021/10/10 02:56:39;;;;;;;24.70;17.47;;;8.90;92.40;;;;;;5074722;28;20369;-79
2021/10/10 02:59:05;;;;;;;27.43;16.47;;;8.90;92.50;;;;;;5074844;28;20033;-79
2021/10/10 03:01:31;;;;;;;28.10;18.53;;;8.90;92.50;;;;;;5074759;28;20492;-79
2021/10/10 03:03:57;;;;;;;25.37;16.70;;;8.80;92.50;;;;;;5057573;28;20032;-79
2021/10/10 03:06:22;;;;;;;24.57;16.97;;;8.80;92.50;;;;;;5074614;28;20089;-80
2021/10/10 03:08:48;;;;;;;29.80;19.17;;;8.90;92.40;;;;;;5075665;28;20040;-80
2021/10/10 03:11:14;;;;;;;25.97;16.77;;;8.80;92.40;;;;;;5057613;28;20036;-79
2021/10/10 03:13:39;;;;;;;23.17;16.03;;;8.80;92.50;;;;;;5074273;28;20025;-79
2021/10/10 03:16:05;;;;;;;27.93;16.27;;;8.70;92.40;;;;;;5057373;28;20040;-79
2021/10/10 03:18:30;;;;;;;20.13;14.57;;;8.70;92.40;;;;;;5074170;28;20111;-79
2021/10/10 03:20:56;;;;;;;23.30;15.00;;;8.70;92.50;;;;;;5057683;28;20037;-79
2021/10/10 03:23:22;;;;;;;25.20;15.77;;;8.60;92.40;;;;;;5057507;28;20044;-79
2021/10/10 03:25:48;;;;;;;22.80;15.70;;;8.60;92.40;;;;;;5074041;28;20472;-78
2021/10/10 03:28:13;;;;;;;27.70;17.07;;;8.60;92.40;;;;;;5074130;28;20127;-78
2021/10/10 03:30:39;;;;;;;28.70;18.20;;;8.60;92.40;;;;;;5057230;28;20037;-78
2021/10/10 03:33:04;;;;;;;27.97;18.60;;;8.50;92.40;;;;;;5057274;28;20048;-78
2021/10/10 03:35:30;;;;;;;27.70;18.33;;;8.50;92.40;;;;;;5074232;28;20491;-78
2021/10/10 03:37:56;;;;;;;27.73;17.47;;;8.50;92.40;;;;;;5075110;28;20094;-78
2021/10/10 03:40:21;;;;;;;29.70;18.03;;;8.50;92.50;;;;;;5057227;28;20039;-78
2021/10/10 03:42:47;;;;;;;30.00;18.90;;;8.40;92.50;;;;;;5074980;28;20527;-78
2021/10/10 03:45:13;;;;;;;25.43;17.50;;;8.40;92.60;;;;;;5075127;28;20054;-78
2021/10/10 03:47:41;;;;;;;27.00;18.47;;;8.40;92.70;;;;;;5073711;28;20036;-79
2021/10/10 03:50:07;;;;;;;31.30;20.03;;;8.30;92.70;;;;;;5073559;28;20024;-78
2021/10/10 03:52:33;;;;;;;32.83;19.50;;;8.40;92.80;;;;;;5074783;28;20016;-79
2021/10/10 03:57:42;;;;;;;25.98;18.38;;;8.40;92.90;;;;;;5074008;28;20025;-79
2021/10/10 04:00:12;;;;;;;28.73;18.70;;;8.40;92.90;;;;;;5072555;28;20039;-79
2021/10/10 04:02:38;;;;;;;32.40;18.70;;;8.40;92.90;;;;;;5074580;28;20032;-79
2021/10/10 04:05:07;;;;;;;31.13;18.90;;;8.30;92.90;;;;;;5073627;28;20031;-79
2021/10/10 04:07:32;;;;;;;26.83;18.67;;;8.30;93.00;;;;;;5057141;28;20400;-79
2021/10/10 04:09:58;;;;;;;32.37;18.47;;;8.30;93.00;;;;;;5073226;28;20028;-79
2021/10/10 04:12:24;;;;;;;27.13;17.00;;;8.30;93.00;;;;;;5074360;28;20064;-79
2021/10/10 04:14:49;;;;;;;24.60;17.30;;;8.30;93.10;;;;;;5056405;28;20024;-79
2021/10/10 04:17:15;;;;;;;25.53;17.50;;;8.30;93.10;;;;;;5056424;28;20032;-79
2021/10/10 04:19:40;;;;;;;25.60;16.93;;;8.30;93.10;;;;;;5056364;28;20029;-79
2021/10/10 04:22:07;;;;;;;28.30;17.30;;;8.30;93.20;;;;;;5072921;28;20059;-79
2021/10/10 04:24:33;;;;;;;25.07;16.57;;;8.40;93.30;;;;;;5073089;28;20123;-79
2021/10/10 04:26:58;;;;;;;23.10;15.70;;;8.30;93.30;;;;;;5056135;28;20060;-79
2021/10/10 04:29:24;;;;;;;26.97;16.13;;;8.30;93.30;;;;;;5072884;28;20048;-79
2021/10/10 04:31:49;;;;;;;21.33;14.97;;;8.20;93.30;;;;;;5072663;28;20540;-79
2021/10/10 04:34:15;;;;;;;24.03;15.73;;;8.20;93.30;;;;;;5072900;28;20485;-79
2021/10/10 04:36:41;;;;;;;21.13;15.10;;;8.20;93.30;;;;;;5072643;28;20123;-79
2021/10/10 04:39:07;;;;;;;21.20;14.83;;;8.20;93.30;;;;;;5072683;28;20036;-79
2021/10/10 04:41:32;;;;;;;24.80;15.60;;;8.10;93.30;;;;;;5073893;28;20032;-79
2021/10/10 04:43:58;;;;;;;22.10;15.33;;;8.10;93.40;;;;;;5072597;28;20029;-79
2021/10/10 04:46:23;;;;;;;23.03;15.13;;;8.10;93.50;;;;;;5055916;28;20447;-79
2021/10/10 04:48:49;;;;;;;20.47;14.03;;;8.10;93.50;;;;;;5073941;28;20439;-79
2021/10/10 04:51:15;;;;;;;22.13;14.77;;;8.10;93.60;;;;;;5072564;28;20477;-79
2021/10/10 04:53:40;;;;;;;21.63;12.97;;;8.10;93.50;;;;;;5055802;28;20036;-79
2021/10/10 04:56:06;;;;;;;20.63;13.83;;;8.00;93.50;;;;;;5055798;28;20036;-79
2021/10/10 04:58:31;;;;;;;19.33;13.07;;;8.00;93.40;;;;;;5055737;28;20515;-79
2021/10/10 05:00:57;;;;;;;19.07;12.60;;;8.00;93.40;;;;;;5072328;28;20024;-79
2021/10/10 05:03:24;;;;;;;18.63;12.23;;;8.00;93.30;;;;;;5055671;28;20044;-80
2021/10/10 05:05:50;;;;;;;20.93;13.47;;;8.00;93.30;;;;;;5072362;28;20033;-79
2021/10/10 05:08:16;;;;;;;21.37;13.77;;;7.90;93.20;;;;;;5055671;28;20033;-79
2021/10/10 05:10:42;;;;;;;21.43;14.17;;;7.90;93.20;;;;;;5055445;28;20028;-79
2021/10/10 05:13:08;;;;;;;21.20;14.43;;;7.90;93.30;;;;;;5073289;28;20516;-79
2021/10/10 05:15:33;;;;;;;22.43;15.23;;;7.80;93.20;;;;;;5072421;28;20035;-79
2021/10/10 05:17:59;;;;;;;21.37;14.67;;;7.80;93.30;;;;;;5072432;28;20031;-79
2021/10/10 05:20:25;;;;;;;21.20;14.73;;;7.90;93.40;;;;;;5072180;28;20037;-79
2021/10/10 05:22:50;;;;;;;21.17;14.83;;;7.80;93.30;;;;;;5072152;28;20039;-78
2021/10/10 05:25:16;;;;;;;22.13;14.20;;;7.80;93.30;;;;;;5073242;28;20029;-78
2021/10/10 05:27:41;;;;;;;22.57;15.67;;;7.80;93.30;;;;;;5073134;28;20072;-78
2021/10/10 05:30:08;;;;;;;20.93;14.73;;;7.70;93.20;;;;;;5071874;28;20035;-78
2021/10/10 05:32:34;;;;;;;21.50;14.80;;;7.70;93.30;;;;;;5085017;28;20464;-79
2021/10/10 05:34:59;;;;;;;22.97;15.20;;;7.70;93.30;;;;;;5067282;28;20055;-79
2021/10/10 05:37:25;;;;;;;21.57;14.87;;;7.70;93.30;;;;;;5074526;28;20036;-79
2021/10/10 05:39:51;;;;;;;21.40;14.90;;;7.70;93.30;;;;;;5062145;28;20392;-79
2021/10/10 05:42:17;;;;;;;21.47;15.00;;;7.60;93.20;;;;;;5074728;28;20040;-79
2021/10/10 05:44:43;;;;;;;19.13;14.03;;;7.70;93.30;;;;;;5071757;28;20457;-79
2021/10/10 05:47:09;;;;;;;19.17;14.07;;;7.60;93.30;;;;;;5072106;28;20036;-79
2021/10/10 05:49:35;;;;;;;23.27;14.80;;;7.50;93.30;;;;;;5071975;28;20097;-79
2021/10/10 05:52:02;;;;;;;25.63;16.17;;;7.50;93.30;;;;;;5073082;28;20033;-79
2021/10/10 05:54:30;;;;;;;22.10;16.03;;;7.50;93.20;;;;;;5071827;28;20029;-79
2021/10/10 05:56:58;;;;;;;19.37;14.53;;;7.50;93.20;;;;;;5073121;28;20025;-79
2021/10/10 05:59:23;;;;;;;20.87;15.07;;;7.40;93.30;;;;;;5071845;28;20086;-79
2021/10/10 06:01:49;;;;;;;20.67;14.83;;;7.40;93.30;;;;;;5055106;28;20106;-79
2021/10/10 06:04:14;;;;;;;26.87;14.67;;;7.30;93.40;;;;;;5071786;28;20099;-79
2021/10/10 06:06:40;;;;;;;29.77;16.90;;;7.30;93.50;;;;;;5038680;28;20110;-79
2021/10/10 06:09:07;;;;;;;35.33;16.97;;;7.40;93.50;;;;;;5038357;28;20391;-79
2021/10/10 06:11:34;;;;;;;24.07;16.57;;;7.30;93.50;;;;;;5073106;28;20028;-79
2021/10/10 06:14:00;;;;;;;24.40;16.73;;;7.30;93.50;;;;;;5072888;28;20024;-79
2021/10/10 06:16:26;;;;;;;30.40;18.07;;;7.30;93.60;;;;;;5054874;28;20052;-79
2021/10/10 06:18:53;;;;;;;27.37;18.00;;;7.30;93.70;;;;;;5054931;28;20487;-79
2021/10/10 06:21:18;;;;;;;30.17;17.63;;;7.40;93.80;;;;;;5054977;28;20028;-79
2021/10/10 06:23:44;;;;;;;31.07;18.97;;;7.40;93.80;;;;;;5074038;28;20036;-79
2021/10/10 06:26:10;;;;;;;38.23;19.27;;;7.40;93.90;;;;;;5058492;28;20032;-79
2021/10/10 06:28:35;;;;;;;30.90;19.17;;;7.50;94.00;;;;;;5074801;28;20060;-79
2021/10/10 06:31:01;;;;;;;37.17;18.23;;;7.50;94.00;;;;;;5076083;28;20025;-79
2021/10/10 06:33:26;;;;;;;38.97;19.40;;;7.50;94.10;;;;;;5058706;28;20029;-79
2021/10/10 06:35:52;;;;;;;37.00;19.57;;;7.50;94.10;;;;;;5058396;28;20082;-79
2021/10/10 06:38:18;;;;;;;33.77;19.27;;;7.60;94.10;;;;;;5058699;28;20025;-78
2021/10/10 06:40:46;;;;;;;36.80;19.47;;;7.50;94.10;;;;;;5075341;28;20115;-79
2021/10/10 06:43:12;;;;;;;30.37;20.13;;;7.60;94.10;;;;;;5075266;28;20138;-79
2021/10/10 06:45:37;;;;;;;28.57;19.10;;;7.60;94.10;;;;;;5074858;28;20028;-79
2021/10/10 06:48:03;;;;;;;31.47;18.90;;;7.60;94.20;;;;;;5074870;28;20039;-79
2021/10/10 06:50:29;;;;;;;33.70;20.30;;;7.70;94.30;;;;;;5074561;28;20033;-79
2021/10/10 06:52:55;;;;;;;34.93;18.13;;;7.70;94.30;;;;;;5057798;28;20056;-79
2021/10/10 06:55:20;;;;;;;32.83;18.63;;;7.80;94.30;;;;;;5058019;28;20388;-78
2021/10/10 06:57:46;;;;;;;34.23;19.90;;;7.70;94.30;;;;;;5041296;28;20460;-79
2021/10/10 07:00:13;;;;;;;48.27;19.33;;;7.80;94.30;;;;;;5058007;28;20033;-78
2021/10/10 07:02:42;;;;;;;28.53;17.53;;;7.80;94.40;;;;;;5057900;28;20029;-78
2021/10/10 07:05:09;;;;;;;32.87;18.63;;;7.90;94.40;;;;;;5042187;28;20060;-78
2021/10/10 07:07:35;;;;;;;29.03;18.33;;;7.90;94.50;;;;;;5057923;28;20033;-79
2021/10/10 07:10:00;;;;;;;28.37;17.47;;;8.00;94.50;;;;;;5041247;28;20366;-79
2021/10/10 07:12:26;;;;;;;29.57;17.97;;;8.00;94.50;;;;;;5074421;28;20111;-79
2021/10/10 07:14:51;;;;;;;28.43;18.47;;;8.10;94.70;;;;;;5075650;28;20035;-78
2021/10/10 07:17:17;;;;;;;29.77;18.13;;;8.20;94.70;;;;;;5074049;28;20059;-79
2021/10/10 07:19:52;;;;;;;24.73;17.03;;;8.20;94.80;;;;;;5057700;28;20487;-78
2021/10/10 07:22:44;;;;;;;24.83;17.40;;;8.20;94.70;;;;;;5074535;28;20350;-79
2021/10/10 07:25:11;;;;;;;23.90;16.80;;;8.40;94.80;;;;;;5048095;28;20465;-79
2021/10/10 07:27:39;;;;;;;24.10;16.90;;;8.50;94.80;;;;;;5073439;28;20469;-79
2021/10/10 07:30:07;;;;;;;24.20;17.00;;;8.50;94.80;;;;;;5074985;28;20365;-79
2021/10/10 07:32:33;;;;;;;27.27;17.70;;;8.60;94.70;;;;;;5073881;28;20028;-79
2021/10/10 07:35:00;;;;;;;24.47;18.07;;;8.70;94.60;;;;;;5073883;28;20028;-79
2021/10/10 07:37:26;;;;;;;28.00;19.87;;;8.60;94.40;;;;;;5057103;28;20024;-78
2021/10/10 07:39:52;;;;;;;24.27;17.70;;;8.80;94.40;;;;;;5057225;28;20020;-79
2021/10/10 07:42:17;;;;;;;27.60;19.43;;;8.90;94.50;;;;;;5057091;28;20024;-78
2021/10/10 07:44:48;;;;;;;26.00;18.33;;;8.90;94.50;;;;;;5041109;28;20451;-78
2021/10/10 07:49:49;;;;;;;23.00;17.70;;;9.00;94.60;;;;;;5074856;28;20024;-78
2021/10/10 07:52:16;;;;;;;23.17;16.97;;;9.10;94.80;;;;;;5073594;28;20033;-79
2021/10/10 07:54:42;;;;;;;23.37;17.53;;;9.30;94.70;;;;;;5056979;28;20025;-79
2021/10/10 07:57:08;;;;;;;28.10;18.17;;;9.40;94.60;;;;;;5073387;28;20078;-79
2021/10/10 07:59:34;;;;;;;27.57;19.17;;;9.40;94.40;;;;;;5056586;28;20024;-79
2021/10/10 08:01:59;;;;;;;23.40;18.27;;;9.50;94.60;;;;;;5056951;28;20039;-78
2021/10/10 08:04:25;;;;;;;27.30;19.90;;;9.60;94.20;;;;;;5074486;28;20036;-79
2021/10/10 08:06:52;;;;;;;27.53;19.87;;;9.60;94.20;;;;;;5073145;28;20024;-78
2021/10/10 08:09:18;;;;;;;26.20;19.23;;;9.70;94.10;;;;;;5074445;28;20028;-79
2021/10/10 08:11:45;;;;;;;37.63;18.97;;;9.70;94.00;;;;;;5072690;28;20048;-79
2021/10/10 08:14:11;;;;;;;31.70;19.57;;;9.70;94.00;;;;;;5056480;28;20477;-79
2021/10/10 08:16:38;;;;;;;27.80;19.93;;;9.70;94.00;;;;;;5056339;28;20472;-79
2021/10/10 08:19:04;;;;;;;31.03;19.70;;;9.80;94.00;;;;;;5073330;28;20031;-78
2021/10/10 08:21:31;;;;;;;26.93;20.53;;;9.90;94.00;;;;;;5073061;28;20029;-78
2021/10/10 08:23:58;;;;;;;27.57;20.17;;;10.00;94.00;;;;;;5072807;28;20051;-78
2021/10/10 08:26:23;;;;;;;25.63;19.23;;;10.00;93.90;;;;;;5072965;28;20028;-79
2021/10/10 08:28:49;;;;;;;27.57;20.23;;;10.00;93.80;;;;;;5073773;28;20056;-79
2021/10/10 08:31:15;;;;;;;28.47;19.77;;;10.10;93.90;;;;;;5039315;28;20028;-80
2021/10/10 08:33:40;;;;;;;28.23;20.20;;;10.10;93.90;;;;;;5072813;28;20054;-79
2021/10/10 08:36:10;;;;;;;28.17;20.83;;;10.20;94.00;;;;;;5056564;28;20048;-79
2021/10/10 08:38:36;;;;;;;29.27;20.77;;;10.20;93.90;;;;;;5073826;28;20051;-79
2021/10/10 08:41:03;;;;;;;29.17;20.73;;;10.20;93.80;;;;;;5073653;28;20029;-79
2021/10/10 08:43:33;;;;;;;30.30;22.53;;;10.30;93.80;;;;;;5074173;28;20108;-79
2021/10/10 08:46:01;;;;;;;30.40;22.47;;;10.30;93.80;;;;;;5055469;28;20048;-79
2021/10/10 08:48:27;;;;;;;38.70;23.10;;;10.40;93.80;;;;;;5055702;28;20488;-80
2021/10/10 08:50:55;;;;;;;32.33;22.83;;;10.50;93.80;;;;;;5039170;28;20032;-80
2021/10/10 08:53:22;;;;;;;33.63;24.33;;;10.60;93.90;;;;;;5072449;28;20016;-80
2021/10/10 08:55:48;;;;;;;33.83;24.70;;;10.70;94.00;;;;;;5073865;28;20116;-79
2021/10/10 08:58:17;;;;;;;31.53;23.83;;;10.80;94.10;;;;;;5073784;28;20020;-79
2021/10/10 09:00:48;;;;;;;30.20;22.23;;;11.00;94.10;;;;;;5072287;28;20142;-78
2021/10/10 09:03:14;;;;;;;28.92;21.73;;;11.10;94.10;;;;;;5073873;28;20033;-79
2021/10/10 09:05:40;;;;;;;30.63;22.20;;;11.30;94.20;;;;;;5072148;28;20028;-79
2021/10/10 09:08:05;;;;;;;29.25;21.77;;;11.50;94.20;;;;;;5055635;28;20028;-79
2021/10/10 09:10:32;;;;;;;31.60;23.30;;;11.60;94.10;;;;;;5055484;28;20029;-79
2021/10/10 09:13:19;;;;;;;30.83;23.50;;;11.70;94.00;;;;;;5072756;28;20035;-79
2021/10/10 09:15:49;;;;;;;31.50;22.85;;;11.90;93.90;;;;;;5072227;28;20073;-79
2021/10/10 09:18:15;;;;;;;29.83;22.23;;;12.00;93.80;;;;;;5072098;28;20502;-79
2021/10/10 09:20:47;;;;;;;28.50;22.33;;;12.10;93.70;;;;;;5073585;28;20110;-79
2021/10/10 09:23:15;;;;;;;29.90;21.90;;;12.10;93.50;;;;;;5073411;28;20031;-79
2021/10/10 09:26:01;;;;;;;27.70;21.08;;;12.20;93.50;;;;;;5073164;28;20028;-79
2021/10/10 09:28:31;;;;;;;24.50;20.10;;;12.30;93.40;;;;;;5071845;28;20089;-79
2021/10/10 09:31:07;;;;;;;26.50;19.05;;;12.40;93.40;;;;;;5073197;28;20021;-79
2021/10/10 09:33:45;;;;;;;27.08;18.00;;;12.50;93.30;;;;;;5055469;28;20170;-79
2021/10/10 09:36:18;;;;;;;25.10;20.15;;;12.60;93.30;;;;;;5073383;28;20028;-78
2021/10/10 09:38:51;;;;;;;29.33;20.70;;;12.70;93.10;;;;;;5071805;28;20495;-79
2021/10/10 09:44:13;;;;;;;24.52;18.83;;;13.00;93.10;;;;;;5071890;28;20119;-78
2021/10/10 09:46:44;;;;;;;22.52;17.60;;;13.30;93.10;;;;;;5071655;28;20124;-79
2021/10/10 09:49:30;;;;;;;21.85;15.88;;;13.70;93.20;;;;;;5073051;28;20043;-79
2021/10/10 09:52:09;;;;;;;20.55;15.55;;;14.00;93.10;;;;;;5071610;28;20032;-79
2021/10/10 09:54:56;;;;;;;24.55;16.48;;;14.20;92.90;;;;;;5071730;28;20101;-79
2021/10/10 09:57:23;;;;;;;21.60;15.63;;;14.30;92.30;;;;;;5071459;28;20031;-79
2021/10/10 09:59:50;;;;;;;19.77;14.93;;;14.60;92.60;;;;;;5074644;28;20465;-79
2021/10/10 10:02:16;;;;;;;19.98;14.85;;;14.90;92.20;;;;;;5075593;28;20036;-78
2021/10/10 10:04:43;;;;;;;19.63;14.10;;;15.20;92.30;;;;;;5076830;28;20033;-77
2021/10/10 10:07:27;;;;;;;19.40;13.70;;;15.50;92.30;;;;;;5076745;28;20028;-77
2021/10/10 10:09:53;;;;;;;17.75;13.75;;;16.10;92.30;;;;;;5076628;28;20103;-77
2021/10/10 10:12:24;;;;;;;16.17;12.02;;;16.80;92.20;;;;;;5076743;28;20163;-77
2021/10/10 10:14:56;;;;;;;14.48;11.63;;;17.60;91.80;;;;;;5076769;28;20377;-77
2021/10/10 10:17:23;;;;;;;16.00;12.43;;;18.30;91.10;;;;;;5077048;28;20361;-78
2021/10/10 10:19:50;;;;;;;15.15;11.52;;;19.10;90.10;;;;;;5075439;28;20392;-78
2021/10/10 10:22:17;;;;;;;14.40;10.60;;;19.80;88.50;;;;;;5075865;28;20039;-78
2021/10/10 10:24:45;;;;;;;14.00;10.52;;;20.50;85.30;;;;;;5076614;28;20021;-78
2021/10/10 10:27:15;;;;;;;14.38;11.93;;;21.10;82.10;;;;;;5075219;28;20370;-78
2021/10/10 10:29:47;;;;;;;16.00;12.70;;;21.70;79.00;;;;;;5075206;28;20044;-78
2021/10/10 10:32:15;;;;;;;17.30;13.80;;;22.40;74.60;;;;;;5076652;28;20025;-78
2021/10/10 10:34:57;;;;;;;17.50;12.75;;;22.90;70.70;;;;;;5075567;28;20090;-79
2021/10/10 10:37:43;;;;;;;14.52;12.25;;;23.40;66.50;;;;;;5076564;28;20029;-78
2021/10/10 10:40:14;;;;;;;14.80;12.30;;;23.70;64.60;;;;;;5074744;28;20039;-78
2021/10/10 10:42:50;;;;;;;14.40;11.52;;;24.10;63.90;;;;;;5076210;28;20025;-78
2021/10/10 10:45:29;;;;;;;13.43;11.13;;;24.50;62.60;;;;;;5074962;28;20040;-79
2021/10/10 10:48:00;;;;;;;14.57;12.00;;;24.80;60.60;;;;;;5076187;28;20103;-80
2021/10/10 10:50:28;;;;;;;14.40;11.70;;;25.20;59.30;;;;;;5076107;28;20035;-80
2021/10/10 10:53:06;;;;;;;14.20;11.82;;;25.40;57.80;;;;;;5075863;28;20027;-80
2021/10/10 10:55:34;;;;;;;15.50;12.30;;;25.70;55.40;;;;;;5076034;28;20032;-79
2021/10/10 10:58:06;;;;;;;16.05;12.18;;;25.90;55.10;;;;;;5074824;28;20313;-79
2021/10/10 11:00:34;;;;;;;15.18;12.10;;;26.00;54.00;;;;;;5075033;28;20135;-81
2021/10/10 11:03:20;;;;;;;16.33;13.13;;;26.10;53.50;;;;;;5074571;28;20024;-82
2021/10/10 11:06:00;;;;;;;14.88;12.50;;;26.30;52.60;;;;;;5075738;28;20392;-79
2021/10/10 11:08:26;;;;;;;15.85;12.82;;;26.60;51.50;;;;;;5074368;28;20378;-80
2021/10/10 11:11:03;;;;;;;16.20;12.73;;;26.90;51.60;;;;;;5075253;28;20023;-79
2021/10/10 11:13:42;;;;;;;14.20;10.98;;;27.10;49.70;;;;;;5074424;28;20484;-79
2021/10/10 11:16:25;;;;;;;17.60;12.10;;;27.30;49.60;;;;;;5075669;28;20043;-79
2021/10/10 11:18:51;;;;;;;15.30;12.15;;;27.60;48.30;;;;;;5075639;28;20021;-80
2021/10/10 11:21:30;;;;;;;15.45;13.65;;;27.60;48.70;;;;;;5074247;28;20025;-79
2021/10/10 11:23:57;;;;;;;15.40;11.52;;;27.90;48.10;;;;;;5074407;28;20036;-79
2021/10/10 11:26:25;;;;;;;13.82;11.60;;;28.00;47.80;;;;;;5074747;28;20029;-80
2021/10/10 11:28:55;;;;;;;14.18;12.13;;;28.10;47.50;;;;;;5074288;28;20151;-80
2021/10/10 11:31:26;;;;;;;16.70;12.35;;;28.40;47.30;;;;;;5075446;28;20020;-80
2021/10/10 11:33:57;;;;;;;13.77;11.88;;;28.70;46.50;;;;;;5075185;28;20090;-80
2021/10/10 11:36:50;;;;;;;14.25;11.52;;;28.90;46.40;;;;;;5075275;28;20082;-79
2021/10/10 11:39:21;;;;;;;13.30;11.57;;;29.40;45.10;;;;;;5082044;28;20454;-78
2021/10/10 11:41:55;;;;;;;13.55;11.35;;;29.80;44.70;;;;;;5095136;28;20036;-79
2021/10/10 11:44:23;;;;;;;13.70;11.75;;;30.00;43.90;;;;;;5093937;28;20031;-78
2021/10/10 11:46:54;;;;;;;13.40;12.00;;;30.30;43.40;;;;;;5095440;28;20475;-79
2021/10/10 11:49:29;;;;;;;14.73;11.20;;;30.50;43.50;;;;;;5095586;28;20077;-79
2021/10/10 11:51:55;;;;;;;13.90;11.27;;;30.50;42.40;;;;;;5085466;28;20027;-79
2021/10/10 11:54:41;;;;;;;15.07;11.52;;;30.40;42.30;;;;;;5073723;28;20012;-80
2021/10/10 11:57:09;;;;;;;14.70;11.18;;;30.00;42.10;;;;;;5075016;28;20024;-80
2021/10/10 11:59:50;;;;;;;14.10;11.88;;;29.70;42.60;;;;;;5073425;28;20499;-80
2021/10/10 12:02:16;;;;;;;14.52;11.55;;;29.40;42.60;;;;;;5074665;28;20032;-80
2021/10/10 12:04:43;;;;;;;16.15;11.35;;;29.20;42.70;;;;;;5073654;28;20032;-80
2021/10/10 12:07:08;;;;;;;14.93;11.43;;;29.00;42.70;;;;;;5073290;28;20051;-80
2021/10/10 12:09:47;;;;;;;16.52;12.40;;;28.60;42.60;;;;;;5073441;28;20036;-79
2021/10/10 12:12:14;;;;;;;14.95;12.57;;;28.10;42.60;;;;;;5056624;28;20568;-79
2021/10/10 12:14:59;;;;;;;19.70;14.27;;;27.70;43.00;;;;;;5073224;28;20397;-79
2021/10/10 12:17:32;;;;;;;17.70;13.18;;;27.40;43.50;;;;;;5072702;28;20028;-78
2021/10/10 12:20:04;;;;;;;19.33;13.50;;;27.40;43.80;;;;;;5074399;28;20488;-79
2021/10/10 12:22:31;;;;;;;17.42;12.55;;;27.30;43.90;;;;;;5072068;28;20412;-79
2021/10/10 12:24:57;;;;;;;19.02;12.65;;;27.30;43.70;;;;;;5073001;28;20023;-78
2021/10/10 12:27:28;;;;;;;15.75;12.23;;;27.30;43.70;;;;;;5073037;28;20108;-79
2021/10/10 12:29:54;;;;;;;16.63;12.18;;;27.40;43.40;;;;;;5073973;28;20039;-78
2021/10/10 12:32:22;;;;;;;21.52;13.50;;;27.50;43.30;;;;;;5072829;28;20024;-79
2021/10/10 12:34:48;;;;;;;16.67;11.60;;;27.70;43.10;;;;;;5056020;28;20035;-79
2021/10/10 12:37:22;;;;;;;18.88;13.18;;;27.80;42.90;;;;;;5055965;28;20044;-80
2021/10/10 12:39:49;;;;;;;17.85;12.75;;;27.90;42.40;;;;;;5072619;28;20029;-78
2021/10/10 12:42:18;;;;;;;16.05;12.45;;;27.90;42.40;;;;;;5074013;28;20412;-77
2021/10/10 12:45:04;;;;;;;17.60;13.38;;;27.90;42.40;;;;;;5073921;28;20024;-77